sensor_id;sensor_type;location;lat;lon;timestamp;temperature;humidity
1702;DHT22;848;48.354;10.064;2023-03-14T00:01:39;10.10;99.90
1702;DHT22;848;48.354;10.064;2023-03-14T00:04:06;10.10;99.90
1702;DHT22;848;48.354;10.064;2023-03-14T00:06:34;10.00;99.90
1702;DHT22;848;48.354;10.064;2023-03-14T00:09:03;10.00;99.90
1702;DHT22;848;48.354;10.064;2023-03-14T00:11:30;10.00;99.90
1702;DHT22;848;48.354;10.064;2023-03-14T00:13:57;9.90;99.90
1702;DHT22;848;48.354;10.064;2023-03-14T00:16:25;9.80;99.90
1702;DHT22;848;48.354;10.064;2023-03-14T00:18:52;9.80;99.90
1702;DHT22;848;48.354;10.064;2023-03-14T00:21:19;9.60;99.90
1702;DHT22;848;48.354;10.064;2023-03-14T00:23:46;9.60;99.90
1702;DHT22;848;48.354;10.064;2023-03-14T00:26:16;9.50;99.90
1702;DHT22;848;48.354;10.064;2023-03-14T00:28:43;9.40;99.90
1702;DHT22;848;48.354;10.064;2023-03-14T00:31:13;9.30;99.90
1702;DHT22;848;48.354;10.064;2023-03-14T00:33:40;9.30;99.90
1702;DHT22;848;48.354;10.064;2023-03-14T00:36:10;9.20;99.90
1702;DHT22;848;48.354;10.064;2023-03-14T00:38:38;9.20;99.90
1702;DHT22;848;48.354;10.064;2023-03-14T00:41:06;9.10;99.90
1702;DHT22;848;48.354;10.064;2023-03-14T00:43:34;9.10;99.90
1702;DHT22;848;48.354;10.064;2023-03-14T00:46:02;9.10;99.90
1702;DHT22;848;48.354;10.064;2023-03-14T00:48:29;9.10;99.90
1702;DHT22;848;48.354;10.064;2023-03-14T00:50:56;9.10;99.90
1702;DHT22;848;48.354;10.064;2023-03-14T00:53:23;9.10;99.90
1702;DHT22;848;48.354;10.064;2023-03-14T00:55:52;9.20;99.90
1702;DHT22;848;48.354;10.064;2023-03-14T00:58:19;9.20;99.90
1702;DHT22;848;48.354;10.064;2023-03-14T01:00:47;9.20;99.90
1702;DHT22;848;48.354;10.064;2023-03-14T01:03:15;9.20;99.90
1702;DHT22;848;48.354;10.064;2023-03-14T01:05:42;9.20;99.90
1702;DHT22;848;48.354;10.064;2023-03-14T01:08:09;9.20;99.90
1702;DHT22;848;48.354;10.064;2023-03-14T01:10:38;9.30;99.90
1702;DHT22;848;48.354;10.064;2023-03-14T01:13:05;9.20;99.90
1702;DHT22;848;48.354;10.064;2023-03-14T01:15:36;9.10;99.90
1702;DHT22;848;48.354;10.064;2023-03-14T01:18:04;9.20;99.90
1702;DHT22;848;48.354;10.064;2023-03-14T01:20:32;9.20;99.90
1702;DHT22;848;48.354;10.064;2023-03-14T01:22:58;9.20;99.90
1702;DHT22;848;48.354;10.064;2023-03-14T01:25:25;9.20;99.90
1702;DHT22;848;48.354;10.064;2023-03-14T01:27:52;9.30;99.90
1702;DHT22;848;48.354;10.064;2023-03-14T01:30:19;9.20;99.90
1702;DHT22;848;48.354;10.064;2023-03-14T01:32:46;9.30;99.90
1702;DHT22;848;48.354;10.064;2023-03-14T01:35:15;9.20;99.90
1702;DHT22;848;48.354;10.064;2023-03-14T01:37:42;9.30;99.90
1702;DHT22;848;48.354;10.064;2023-03-14T01:40:11;9.30;99.90
1702;DHT22;848;48.354;10.064;2023-03-14T01:42:45;9.30;99.90
1702;DHT22;848;48.354;10.064;2023-03-14T01:48:11;9.30;99.90
1702;DHT22;848;48.354;10.064;2023-03-14T01:50:40;9.30;99.90
1702;DHT22;848;48.354;10.064;2023-03-14T01:53:07;9.40;99.90
1702;DHT22;848;48.354;10.064;2023-03-14T01:55:34;9.40;99.90
1702;DHT22;848;48.354;10.064;2023-03-14T01:58:03;9.40;99.90
1702;DHT22;848;48.354;10.064;2023-03-14T02:00:30;9.40;99.90
1702;DHT22;848;48.354;10.064;2023-03-14T02:03:00;9.30;99.90
1702;DHT22;848;48.354;10.064;2023-03-14T02:05:32;9.40;99.90
1702;DHT22;848;48.354;10.064;2023-03-14T02:08:05;9.30;99.90
1702;DHT22;848;48.354;10.064;2023-03-14T02:10:40;9.30;99.90
1702;DHT22;848;48.354;10.064;2023-03-14T02:13:11;9.30;99.90
1702;DHT22;848;48.354;10.064;2023-03-14T02:15:41;9.30;99.90
1702;DHT22;848;48.354;10.064;2023-03-14T02:18:09;9.30;99.90
1702;DHT22;848;48.354;10.064;2023-03-14T02:20:42;9.30;99.90
1702;DHT22;848;48.354;10.064;2023-03-14T02:23:16;9.30;99.90
1702;DHT22;848;48.354;10.064;2023-03-14T02:25:47;9.20;99.90
1702;DHT22;848;48.354;10.064;2023-03-14T02:28:17;9.20;99.90
1702;DHT22;848;48.354;10.064;2023-03-14T02:30:44;9.20;99.90
1702;DHT22;848;48.354;10.064;2023-03-14T02:33:13;9.20;99.90
1702;DHT22;848;48.354;10.064;2023-03-14T02:35:43;9.20;99.90
1702;DHT22;848;48.354;10.064;2023-03-14T02:38:15;9.10;99.90
1702;DHT22;848;48.354;10.064;2023-03-14T02:40:44;9.20;99.90
1702;DHT22;848;48.354;10.064;2023-03-14T02:43:11;9.20;99.90
1702;DHT22;848;48.354;10.064;2023-03-14T02:45:41;9.10;99.90
1702;DHT22;848;48.354;10.064;2023-03-14T02:48:14;9.10;99.90
1702;DHT22;848;48.354;10.064;2023-03-14T02:50:42;9.10;99.90
1702;DHT22;848;48.354;10.064;2023-03-14T02:53:12;9.10;99.90
1702;DHT22;848;48.354;10.064;2023-03-14T02:55:39;9.10;99.90
1702;DHT22;848;48.354;10.064;2023-03-14T02:58:06;9.10;99.90
1702;DHT22;848;48.354;10.064;2023-03-14T03:00:37;9.10;99.90
1702;DHT22;848;48.354;10.064;2023-03-14T03:03:05;9.00;99.90
1702;DHT22;848;48.354;10.064;2023-03-14T03:05:32;9.10;99.90
1702;DHT22;848;48.354;10.064;2023-03-14T03:07:59;9.10;99.90
1702;DHT22;848;48.354;10.064;2023-03-14T03:10:27;9.10;99.90
1702;DHT22;848;48.354;10.064;2023-03-14T03:12:54;9.10;99.90
1702;DHT22;848;48.354;10.064;2023-03-14T03:15:21;9.10;99.90
1702;DHT22;848;48.354;10.064;2023-03-14T03:17:48;9.10;99.90
1702;DHT22;848;48.354;10.064;2023-03-14T03:20:16;9.10;99.90
1702;DHT22;848;48.354;10.064;2023-03-14T03:22:43;9.10;99.90
1702;DHT22;848;48.354;10.064;2023-03-14T03:25:10;9.10;99.90
1702;DHT22;848;48.354;10.064;2023-03-14T03:27:38;9.00;99.90
1702;DHT22;848;48.354;10.064;2023-03-14T03:30:06;9.00;99.90
1702;DHT22;848;48.354;10.064;2023-03-14T03:32:33;9.00;99.90
1702;DHT22;848;48.354;10.064;2023-03-14T03:35:01;9.00;99.90
1702;DHT22;848;48.354;10.064;2023-03-14T03:37:32;9.00;99.90
1702;DHT22;848;48.354;10.064;2023-03-14T03:39:59;9.00;99.90
1702;DHT22;848;48.354;10.064;2023-03-14T03:42:28;8.90;99.90
1702;DHT22;848;48.354;10.064;2023-03-14T03:44:55;9.00;99.90
1702;DHT22;848;48.354;10.064;2023-03-14T03:47:23;8.90;99.90
1702;DHT22;848;48.354;10.064;2023-03-14T03:49:50;8.90;99.90
1702;DHT22;848;48.354;10.064;2023-03-14T03:52:17;8.90;99.90
1702;DHT22;848;48.354;10.064;2023-03-14T03:54:46;8.80;99.90
1702;DHT22;848;48.354;10.064;2023-03-14T03:57:13;8.80;99.90
1702;DHT22;848;48.354;10.064;2023-03-14T03:59:39;8.80;99.90
1702;DHT22;848;48.354;10.064;2023-03-14T04:02:06;8.80;99.90
1702;DHT22;848;48.354;10.064;2023-03-14T04:04:34;8.80;99.90
1702;DHT22;848;48.354;10.064;2023-03-14T04:07:01;8.80;99.90
1702;DHT22;848;48.354;10.064;2023-03-14T04:09:27;8.80;99.90
1702;DHT22;848;48.354;10.064;2023-03-14T04:11:56;8.90;99.90
1702;DHT22;848;48.354;10.064;2023-03-14T04:14:23;8.90;99.90
1702;DHT22;848;48.354;10.064;2023-03-14T04:16:50;8.90;99.90
1702;DHT22;848;48.354;10.064;2023-03-14T04:19:17;8.90;99.90
1702;DHT22;848;48.354;10.064;2023-03-14T04:21:44;8.90;99.90
1702;DHT22;848;48.354;10.064;2023-03-14T04:24:12;8.90;99.90
1702;DHT22;848;48.354;10.064;2023-03-14T04:26:39;8.90;99.90
1702;DHT22;848;48.354;10.064;2023-03-14T04:29:07;8.90;99.90
1702;DHT22;848;48.354;10.064;2023-03-14T04:31:34;8.90;99.90
1702;DHT22;848;48.354;10.064;2023-03-14T04:34:01;8.90;99.90
1702;DHT22;848;48.354;10.064;2023-03-14T04:36:28;8.80;99.90
1702;DHT22;848;48.354;10.064;2023-03-14T04:38:55;8.70;99.90
1702;DHT22;848;48.354;10.064;2023-03-14T04:41:22;8.80;99.90
1702;DHT22;848;48.354;10.064;2023-03-14T04:43:48;8.70;99.90
1702;DHT22;848;48.354;10.064;2023-03-14T04:46:17;8.70;99.90
1702;DHT22;848;48.354;10.064;2023-03-14T04:48:44;8.70;99.90
1702;DHT22;848;48.354;10.064;2023-03-14T04:51:10;8.70;99.90
1702;DHT22;848;48.354;10.064;2023-03-14T04:53:37;8.70;99.90
1702;DHT22;848;48.354;10.064;2023-03-14T04:56:05;8.70;99.90
1702;DHT22;848;48.354;10.064;2023-03-14T04:58:32;8.70;99.90
1702;DHT22;848;48.354;10.064;2023-03-14T05:01:02;8.70;99.90
1702;DHT22;848;48.354;10.064;2023-03-14T05:03:32;8.70;99.90
1702;DHT22;848;48.354;10.064;2023-03-14T05:06:01;8.70;99.90
1702;DHT22;848;48.354;10.064;2023-03-14T05:08:28;8.70;99.90
1702;DHT22;848;48.354;10.064;2023-03-14T05:10:56;8.70;99.90
1702;DHT22;848;48.354;10.064;2023-03-14T05:13:23;8.70;99.90
1702;DHT22;848;48.354;10.064;2023-03-14T05:15:50;8.70;99.90
1702;DHT22;848;48.354;10.064;2023-03-14T05:18:17;8.70;99.90
1702;DHT22;848;48.354;10.064;2023-03-14T05:20:46;8.70;99.90
1702;DHT22;848;48.354;10.064;2023-03-14T05:23:13;8.60;99.90
1702;DHT22;848;48.354;10.064;2023-03-14T05:25:40;8.70;99.90
1702;DHT22;848;48.354;10.064;2023-03-14T05:28:06;8.60;99.90
1702;DHT22;848;48.354;10.064;2023-03-14T05:30:33;8.60;99.90
1702;DHT22;848;48.354;10.064;2023-03-14T05:33:00;8.60;99.90
1702;DHT22;848;48.354;10.064;2023-03-14T05:35:27;8.60;99.90
1702;DHT22;848;48.354;10.064;2023-03-14T05:37:55;8.60;99.90
1702;DHT22;848;48.354;10.064;2023-03-14T05:40:22;8.60;99.90
1702;DHT22;848;48.354;10.064;2023-03-14T05:42:49;8.60;99.90
1702;DHT22;848;48.354;10.064;2023-03-14T05:45:16;8.60;99.90
1702;DHT22;848;48.354;10.064;2023-03-14T05:47:43;8.60;99.90
1702;DHT22;848;48.354;10.064;2023-03-14T05:50:10;8.60;99.90
1702;DHT22;848;48.354;10.064;2023-03-14T05:52:38;8.60;99.90
1702;DHT22;848;48.354;10.064;2023-03-14T05:55:07;8.60;99.90
1702;DHT22;848;48.354;10.064;2023-03-14T05:57:36;8.60;99.90
1702;DHT22;848;48.354;10.064;2023-03-14T06:00:04;8.60;99.90
1702;DHT22;848;48.354;10.064;2023-03-14T06:02:31;8.60;99.90
1702;DHT22;848;48.354;10.064;2023-03-14T06:04:58;8.60;99.90
1702;DHT22;848;48.354;10.064;2023-03-14T06:07:25;8.60;99.90
1702;DHT22;848;48.354;10.064;2023-03-14T06:09:52;8.60;99.90
1702;DHT22;848;48.354;10.064;2023-03-14T06:12:20;8.60;99.90
1702;DHT22;848;48.354;10.064;2023-03-14T06:14:47;8.70;99.90
1702;DHT22;848;48.354;10.064;2023-03-14T06:17:15;8.70;99.90
1702;DHT22;848;48.354;10.064;2023-03-14T06:19:42;8.70;99.90
1702;DHT22;848;48.354;10.064;2023-03-14T06:22:09;8.70;99.90
1702;DHT22;848;48.354;10.064;2023-03-14T06:24:36;8.70;99.90
1702;DHT22;848;48.354;10.064;2023-03-14T06:27:03;8.70;99.90
1702;DHT22;848;48.354;10.064;2023-03-14T06:29:31;8.70;99.90
1702;DHT22;848;48.354;10.064;2023-03-14T06:31:58;8.70;99.90
1702;DHT22;848;48.354;10.064;2023-03-14T06:34:25;8.70;99.90
1702;DHT22;848;48.354;10.064;2023-03-14T06:36:52;8.70;99.90
1702;DHT22;848;48.354;10.064;2023-03-14T06:39:19;8.70;99.90
1702;DHT22;848;48.354;10.064;2023-03-14T06:41:46;8.80;99.90
1702;DHT22;848;48.354;10.064;2023-03-14T06:44:13;8.80;99.90
1702;DHT22;848;48.354;10.064;2023-03-14T06:46:41;8.80;99.90
1702;DHT22;848;48.354;10.064;2023-03-14T06:49:08;8.80;99.90
1702;DHT22;848;48.354;10.064;2023-03-14T06:51:35;8.80;99.90
1702;DHT22;848;48.354;10.064;2023-03-14T06:54:02;8.80;99.90
1702;DHT22;848;48.354;10.064;2023-03-14T06:56:29;8.90;99.90
1702;DHT22;848;48.354;10.064;2023-03-14T06:58:56;9.00;99.90
1702;DHT22;848;48.354;10.064;2023-03-14T07:01:25;9.00;99.90
1702;DHT22;848;48.354;10.064;2023-03-14T07:03:53;9.00;99.90
1702;DHT22;848;48.354;10.064;2023-03-14T07:06:20;9.10;99.90
1702;DHT22;848;48.354;10.064;2023-03-14T07:08:47;9.10;99.90
1702;DHT22;848;48.354;10.064;2023-03-14T07:11:15;9.10;99.90
1702;DHT22;848;48.354;10.064;2023-03-14T07:13:41;9.10;99.90
1702;DHT22;848;48.354;10.064;2023-03-14T07:16:08;9.10;99.90
1702;DHT22;848;48.354;10.064;2023-03-14T07:18:35;9.20;99.90
1702;DHT22;848;48.354;10.064;2023-03-14T07:21:04;9.20;99.90
1702;DHT22;848;48.354;10.064;2023-03-14T07:23:32;9.20;99.90
1702;DHT22;848;48.354;10.064;2023-03-14T07:25:58;9.20;99.90
1702;DHT22;848;48.354;10.064;2023-03-14T07:28:25;9.20;99.90
1702;DHT22;848;48.354;10.064;2023-03-14T07:30:53;9.30;99.90
1702;DHT22;848;48.354;10.064;2023-03-14T07:33:20;9.30;99.90
1702;DHT22;848;48.354;10.064;2023-03-14T07:35:47;9.40;99.90
1702;DHT22;848;48.354;10.064;2023-03-14T07:38:17;9.40;99.90
1702;DHT22;848;48.354;10.064;2023-03-14T07:40:44;9.50;99.90
1702;DHT22;848;48.354;10.064;2023-03-14T07:43:11;9.50;99.90
1702;DHT22;848;48.354;10.064;2023-03-14T07:45:38;9.50;99.90
1702;DHT22;848;48.354;10.064;2023-03-14T07:48:05;9.60;99.90
1702;DHT22;848;48.354;10.064;2023-03-14T07:50:32;9.70;99.90
1702;DHT22;848;48.354;10.064;2023-03-14T07:52:59;9.90;99.90
1702;DHT22;848;48.354;10.064;2023-03-14T07:55:27;10.00;99.90
1702;DHT22;848;48.354;10.064;2023-03-14T07:57:54;10.00;99.90
1702;DHT22;848;48.354;10.064;2023-03-14T08:00:21;10.00;99.90
1702;DHT22;848;48.354;10.064;2023-03-14T08:02:48;10.10;99.90
1702;DHT22;848;48.354;10.064;2023-03-14T08:05:15;10.20;99.90
1702;DHT22;848;48.354;10.064;2023-03-14T08:07:42;10.30;99.90
1702;DHT22;848;48.354;10.064;2023-03-14T08:10:10;10.50;99.90
1702;DHT22;848;48.354;10.064;2023-03-14T08:12:40;10.70;99.90
1702;DHT22;848;48.354;10.064;2023-03-14T08:15:07;10.80;99.90
1702;DHT22;848;48.354;10.064;2023-03-14T08:17:37;10.80;99.90
1702;DHT22;848;48.354;10.064;2023-03-14T08:20:05;10.70;99.90
1702;DHT22;848;48.354;10.064;2023-03-14T08:22:34;10.70;99.90
1702;DHT22;848;48.354;10.064;2023-03-14T08:25:01;10.70;99.90
1702;DHT22;848;48.354;10.064;2023-03-14T08:27:28;10.70;99.90
1702;DHT22;848;48.354;10.064;2023-03-14T08:29:56;10.90;99.90
1702;DHT22;848;48.354;10.064;2023-03-14T08:32:25;11.00;99.90
1702;DHT22;848;48.354;10.064;2023-03-14T08:34:52;11.00;99.90
1702;DHT22;848;48.354;10.064;2023-03-14T08:37:19;11.00;99.90
1702;DHT22;848;48.354;10.064;2023-03-14T08:39:46;10.90;99.90
1702;DHT22;848;48.354;10.064;2023-03-14T08:42:13;10.80;99.90
1702;DHT22;848;48.354;10.064;2023-03-14T08:44:40;10.70;99.90
1702;DHT22;848;48.354;10.064;2023-03-14T08:47:08;10.60;99.90
1702;DHT22;848;48.354;10.064;2023-03-14T08:49:35;10.60;99.90
1702;DHT22;848;48.354;10.064;2023-03-14T08:52:02;10.50;99.90
1702;DHT22;848;48.354;10.064;2023-03-14T08:54:29;10.60;99.90
1702;DHT22;848;48.354;10.064;2023-03-14T08:56:56;10.60;99.90
1702;DHT22;848;48.354;10.064;2023-03-14T08:59:23;10.60;99.90
1702;DHT22;848;48.354;10.064;2023-03-14T09:01:50;10.60;99.90
1702;DHT22;848;48.354;10.064;2023-03-14T09:04:19;10.60;99.90
1702;DHT22;848;48.354;10.064;2023-03-14T09:06:45;10.70;99.90
1702;DHT22;848;48.354;10.064;2023-03-14T09:09:12;10.70;99.90
1702;DHT22;848;48.354;10.064;2023-03-14T09:11:40;10.70;99.90
1702;DHT22;848;48.354;10.064;2023-03-14T09:14:07;10.80;99.90
1702;DHT22;848;48.354;10.064;2023-03-14T09:16:34;10.80;99.90
1702;DHT22;848;48.354;10.064;2023-03-14T09:19:01;10.90;99.90
1702;DHT22;848;48.354;10.064;2023-03-14T09:21:29;10.90;99.90
1702;DHT22;848;48.354;10.064;2023-03-14T09:23:56;11.00;99.90
1702;DHT22;848;48.354;10.064;2023-03-14T09:26:23;11.00;99.90
1702;DHT22;848;48.354;10.064;2023-03-14T09:28:50;11.30;99.90
1702;DHT22;848;48.354;10.064;2023-03-14T09:31:17;11.50;99.90
1702;DHT22;848;48.354;10.064;2023-03-14T09:33:43;11.90;99.90
1702;DHT22;848;48.354;10.064;2023-03-14T09:36:10;12.20;99.90
1702;DHT22;848;48.354;10.064;2023-03-14T09:38:39;12.10;99.90
1702;DHT22;848;48.354;10.064;2023-03-14T09:41:14;11.90;99.90
1702;DHT22;848;48.354;10.064;2023-03-14T09:43:42;11.90;99.90
1702;DHT22;848;48.354;10.064;2023-03-14T09:46:11;11.70;99.90
1702;DHT22;848;48.354;10.064;2023-03-14T09:48:39;11.60;99.90
1702;DHT22;848;48.354;10.064;2023-03-14T09:51:11;11.50;99.90
1702;DHT22;848;48.354;10.064;2023-03-14T09:53:42;11.50;99.90
1702;DHT22;848;48.354;10.064;2023-03-14T09:56:14;11.60;99.90
1702;DHT22;848;48.354;10.064;2023-03-14T09:58:45;11.60;99.90
1702;DHT22;848;48.354;10.064;2023-03-14T10:01:18;11.60;99.90
1702;DHT22;848;48.354;10.064;2023-03-14T10:03:47;11.70;99.90
1702;DHT22;848;48.354;10.064;2023-03-14T10:06:15;11.80;99.90
1702;DHT22;848;48.354;10.064;2023-03-14T10:08:44;12.10;99.90
1702;DHT22;848;48.354;10.064;2023-03-14T10:11:14;12.10;99.90
1702;DHT22;848;48.354;10.064;2023-03-14T10:14:04;12.00;99.90
1702;DHT22;848;48.354;10.064;2023-03-14T10:16:34;12.00;99.90
1702;DHT22;848;48.354;10.064;2023-03-14T10:19:03;12.10;99.90
1702;DHT22;848;48.354;10.064;2023-03-14T10:21:35;12.10;99.90
1702;DHT22;848;48.354;10.064;2023-03-14T10:24:21;12.20;99.90
1702;DHT22;848;48.354;10.064;2023-03-14T10:26:49;12.40;99.90
1702;DHT22;848;48.354;10.064;2023-03-14T10:29:17;12.40;99.90
1702;DHT22;848;48.354;10.064;2023-03-14T10:31:50;12.20;99.90
1702;DHT22;848;48.354;10.064;2023-03-14T10:34:22;12.20;99.90
1702;DHT22;848;48.354;10.064;2023-03-14T10:36:52;12.20;99.90
1702;DHT22;848;48.354;10.064;2023-03-14T10:39:33;12.30;99.90
1702;DHT22;848;48.354;10.064;2023-03-14T10:42:09;12.30;99.90
1702;DHT22;848;48.354;10.064;2023-03-14T10:44:39;12.30;99.90
1702;DHT22;848;48.354;10.064;2023-03-14T10:47:11;12.40;99.90
1702;DHT22;848;48.354;10.064;2023-03-14T10:49:41;12.40;99.90
1702;DHT22;848;48.354;10.064;2023-03-14T10:52:20;12.40;99.90
1702;DHT22;848;48.354;10.064;2023-03-14T10:54:54;12.40;99.90
1702;DHT22;848;48.354;10.064;2023-03-14T10:57:23;12.50;99.90
1702;DHT22;848;48.354;10.064;2023-03-14T10:59:51;12.50;99.90
1702;DHT22;848;48.354;10.064;2023-03-14T11:02:34;12.50;99.90
1702;DHT22;848;48.354;10.064;2023-03-14T11:05:11;12.50;99.90
1702;DHT22;848;48.354;10.064;2023-03-14T11:07:43;12.60;99.90
1702;DHT22;848;48.354;10.064;2023-03-14T11:10:26;12.70;99.90
1702;DHT22;848;48.354;10.064;2023-03-14T11:13:01;12.70;99.90
1702;DHT22;848;48.354;10.064;2023-03-14T11:15:35;12.70;99.90
1702;DHT22;848;48.354;10.064;2023-03-14T11:21:18;13.10;99.90
1702;DHT22;848;48.354;10.064;2023-03-14T11:23:53;13.20;99.90
1702;DHT22;848;48.354;10.064;2023-03-14T11:26:33;13.30;99.90
1702;DHT22;848;48.354;10.064;2023-03-14T11:29:20;13.40;99.90
1702;DHT22;848;48.354;10.064;2023-03-14T11:31:55;13.40;99.90
1702;DHT22;848;48.354;10.064;2023-03-14T11:34:28;13.40;99.90
1702;DHT22;848;48.354;10.064;2023-03-14T11:36:59;13.20;99.90
1702;DHT22;848;48.354;10.064;2023-03-14T11:39:35;13.10;99.90
1702;DHT22;848;48.354;10.064;2023-03-14T11:42:11;12.90;99.90
1702;DHT22;848;48.354;10.064;2023-03-14T11:44:41;12.90;99.90
1702;DHT22;848;48.354;10.064;2023-03-14T11:47:13;12.70;99.90
1702;DHT22;848;48.354;10.064;2023-03-14T11:49:45;12.60;99.90
1702;DHT22;848;48.354;10.064;2023-03-14T11:52:19;12.50;99.90
1702;DHT22;848;48.354;10.064;2023-03-14T11:54:52;12.50;99.90
1702;DHT22;848;48.354;10.064;2023-03-14T11:57:22;12.50;99.90
1702;DHT22;848;48.354;10.064;2023-03-14T11:59:52;12.30;99.90
1702;DHT22;848;48.354;10.064;2023-03-14T12:02:25;12.20;99.90
1702;DHT22;848;48.354;10.064;2023-03-14T12:10:53;11.90;99.90
1702;DHT22;848;48.354;10.064;2023-03-14T12:13:29;11.80;99.90
1702;DHT22;848;48.354;10.064;2023-03-14T12:15:59;11.70;99.90
1702;DHT22;848;48.354;10.064;2023-03-14T12:18:28;11.60;99.90
1702;DHT22;848;48.354;10.064;2023-03-14T12:20:58;11.60;99.90
1702;DHT22;848;48.354;10.064;2023-03-14T12:23:27;11.50;99.90
1702;DHT22;848;48.354;10.064;2023-03-14T12:26:12;11.50;99.90
1702;DHT22;848;48.354;10.064;2023-03-14T12:28:43;11.40;99.90
1702;DHT22;848;48.354;10.064;2023-03-14T12:31:35;11.30;99.90
1702;DHT22;848;48.354;10.064;2023-03-14T12:34:03;11.20;99.90
1702;DHT22;848;48.354;10.064;2023-03-14T12:36:54;11.20;99.90
1702;DHT22;848;48.354;10.064;2023-03-14T12:39:29;11.20;99.90
1702;DHT22;848;48.354;10.064;2023-03-14T12:42:02;11.20;99.90
1702;DHT22;848;48.354;10.064;2023-03-14T12:44:43;11.10;99.90
1702;DHT22;848;48.354;10.064;2023-03-14T12:50:18;10.80;99.90
1702;DHT22;848;48.354;10.064;2023-03-14T12:53:06;10.70;99.90
1702;DHT22;848;48.354;10.064;2023-03-14T12:55:41;10.60;99.90
1702;DHT22;848;48.354;10.064;2023-03-14T12:58:14;10.60;99.90
1702;DHT22;848;48.354;10.064;2023-03-14T13:00:44;10.60;99.90
1702;DHT22;848;48.354;10.064;2023-03-14T13:03:18;10.50;99.90
1702;DHT22;848;48.354;10.064;2023-03-14T13:05:55;10.50;99.90
1702;DHT22;848;48.354;10.064;2023-03-14T13:08:41;10.40;99.90
1702;DHT22;848;48.354;10.064;2023-03-14T13:11:10;10.40;99.90
1702;DHT22;848;48.354;10.064;2023-03-14T13:13:42;10.40;99.90
1702;DHT22;848;48.354;10.064;2023-03-14T13:16:15;10.40;99.90
1702;DHT22;848;48.354;10.064;2023-03-14T13:18:44;10.40;99.90
1702;DHT22;848;48.354;10.064;2023-03-14T13:21:15;10.40;99.90
1702;DHT22;848;48.354;10.064;2023-03-14T13:23:55;10.20;99.90
1702;DHT22;848;48.354;10.064;2023-03-14T13:26:24;10.10;99.90
1702;DHT22;848;48.354;10.064;2023-03-14T13:28:53;10.10;99.90
1702;DHT22;848;48.354;10.064;2023-03-14T13:31:24;10.00;99.90
1702;DHT22;848;48.354;10.064;2023-03-14T13:33:59;9.90;99.90
1702;DHT22;848;48.354;10.064;2023-03-14T13:36:27;9.70;99.90
1702;DHT22;848;48.354;10.064;2023-03-14T13:38:58;9.40;99.90
1702;DHT22;848;48.354;10.064;2023-03-14T13:41:27;8.90;99.90
1702;DHT22;848;48.354;10.064;2023-03-14T13:44:01;8.60;99.90
1702;DHT22;848;48.354;10.064;2023-03-14T13:46:34;8.60;99.90
1702;DHT22;848;48.354;10.064;2023-03-14T13:49:03;8.60;99.90
1702;DHT22;848;48.354;10.064;2023-03-14T13:51:30;8.70;99.90
1702;DHT22;848;48.354;10.064;2023-03-14T13:53:59;8.80;99.90
1702;DHT22;848;48.354;10.064;2023-03-14T13:56:28;8.80;99.90
1702;DHT22;848;48.354;10.064;2023-03-14T13:58:55;8.80;99.90
1702;DHT22;848;48.354;10.064;2023-03-14T14:01:25;8.90;99.90
1702;DHT22;848;48.354;10.064;2023-03-14T14:03:56;8.80;99.90
1702;DHT22;848;48.354;10.064;2023-03-14T14:06:29;8.90;99.90
1702;DHT22;848;48.354;10.064;2023-03-14T14:08:57;8.90;99.90
1702;DHT22;848;48.354;10.064;2023-03-14T14:11:34;9.00;99.90
1702;DHT22;848;48.354;10.064;2023-03-14T14:14:03;9.00;99.90
1702;DHT22;848;48.354;10.064;2023-03-14T14:16:31;9.10;99.90
1702;DHT22;848;48.354;10.064;2023-03-14T14:19:00;9.20;99.90
1702;DHT22;848;48.354;10.064;2023-03-14T14:21:28;9.30;99.90
1702;DHT22;848;48.354;10.064;2023-03-14T14:23:56;9.30;99.90
1702;DHT22;848;48.354;10.064;2023-03-14T14:26:23;9.30;99.90
1702;DHT22;848;48.354;10.064;2023-03-14T14:29:00;9.20;99.90
1702;DHT22;848;48.354;10.064;2023-03-14T14:31:27;9.10;99.90
1702;DHT22;848;48.354;10.064;2023-03-14T14:33:59;9.10;99.90
1702;DHT22;848;48.354;10.064;2023-03-14T14:36:28;9.10;99.90
1702;DHT22;848;48.354;10.064;2023-03-14T14:39:00;9.10;99.90
1702;DHT22;848;48.354;10.064;2023-03-14T14:41:31;9.10;99.90
1702;DHT22;848;48.354;10.064;2023-03-14T14:44:00;8.90;99.90
1702;DHT22;848;48.354;10.064;2023-03-14T14:46:30;8.80;99.90
1702;DHT22;848;48.354;10.064;2023-03-14T14:49:03;8.80;99.90
1702;DHT22;848;48.354;10.064;2023-03-14T14:51:38;8.70;99.90
1702;DHT22;848;48.354;10.064;2023-03-14T14:54:14;8.70;99.90
1702;DHT22;848;48.354;10.064;2023-03-14T14:56:47;8.60;99.90
1702;DHT22;848;48.354;10.064;2023-03-14T14:59:21;8.60;99.90
1702;DHT22;848;48.354;10.064;2023-03-14T15:01:48;8.50;99.90
1702;DHT22;848;48.354;10.064;2023-03-14T15:04:18;8.40;99.90
1702;DHT22;848;48.354;10.064;2023-03-14T15:06:46;8.20;99.90
1702;DHT22;848;48.354;10.064;2023-03-14T15:09:13;8.10;99.90
1702;DHT22;848;48.354;10.064;2023-03-14T15:11:42;8.00;99.90
1702;DHT22;848;48.354;10.064;2023-03-14T15:14:08;8.00;99.90
1702;DHT22;848;48.354;10.064;2023-03-14T15:16:35;8.00;99.90
1702;DHT22;848;48.354;10.064;2023-03-14T15:19:09;8.00;99.90
1702;DHT22;848;48.354;10.064;2023-03-14T15:21:38;8.00;99.90
1702;DHT22;848;48.354;10.064;2023-03-14T15:24:07;8.10;99.90
1702;DHT22;848;48.354;10.064;2023-03-14T15:26:34;8.10;99.90
1702;DHT22;848;48.354;10.064;2023-03-14T15:29:01;8.20;99.90
1702;DHT22;848;48.354;10.064;2023-03-14T15:31:28;8.10;99.90
1702;DHT22;848;48.354;10.064;2023-03-14T15:33:55;8.10;99.90
1702;DHT22;848;48.354;10.064;2023-03-14T15:36:24;8.20;99.90
1702;DHT22;848;48.354;10.064;2023-03-14T15:38:53;8.10;99.90
1702;DHT22;848;48.354;10.064;2023-03-14T15:41:22;8.00;99.90
1702;DHT22;848;48.354;10.064;2023-03-14T15:43:49;8.00;99.90
1702;DHT22;848;48.354;10.064;2023-03-14T15:46:16;7.90;99.90
1702;DHT22;848;48.354;10.064;2023-03-14T15:48:43;7.90;99.90
1702;DHT22;848;48.354;10.064;2023-03-14T15:51:10;7.80;99.90
1702;DHT22;848;48.354;10.064;2023-03-14T15:53:37;7.80;99.90
1702;DHT22;848;48.354;10.064;2023-03-14T15:56:09;7.70;99.90
1702;DHT22;848;48.354;10.064;2023-03-14T15:58:37;7.70;99.90
1702;DHT22;848;48.354;10.064;2023-03-14T16:01:06;7.70;99.90
1702;DHT22;848;48.354;10.064;2023-03-14T16:03:34;7.70;99.90
1702;DHT22;848;48.354;10.064;2023-03-14T16:06:01;7.60;99.90
1702;DHT22;848;48.354;10.064;2023-03-14T16:08:28;7.70;99.90
1702;DHT22;848;48.354;10.064;2023-03-14T16:10:56;7.80;99.90
1702;DHT22;848;48.354;10.064;2023-03-14T16:13:29;7.90;99.90
1702;DHT22;848;48.354;10.064;2023-03-14T16:15:57;7.90;99.90
1702;DHT22;848;48.354;10.064;2023-03-14T16:18:27;8.00;99.90
1702;DHT22;848;48.354;10.064;2023-03-14T16:20:55;8.00;99.90
1702;DHT22;848;48.354;10.064;2023-03-14T16:23:23;8.00;99.90
1702;DHT22;848;48.354;10.064;2023-03-14T16:25:50;8.10;99.90
1702;DHT22;848;48.354;10.064;2023-03-14T16:28:17;8.10;99.90
1702;DHT22;848;48.354;10.064;2023-03-14T16:30:46;8.20;99.90
1702;DHT22;848;48.354;10.064;2023-03-14T16:33:13;8.20;99.90
1702;DHT22;848;48.354;10.064;2023-03-14T16:35:40;8.20;99.90
1702;DHT22;848;48.354;10.064;2023-03-14T16:38:07;8.10;99.90
1702;DHT22;848;48.354;10.064;2023-03-14T16:40:34;8.10;99.90